sensor_id;sensor_type;location;lat;lon;timestamp;temperature;humidity
13409;DHT22;6775;49.574;11.170;2023-08-31T00:01:01;14.10;99.90
13409;DHT22;6775;49.574;11.170;2023-08-31T00:03:30;14.10;99.90
13409;DHT22;6775;49.574;11.170;2023-08-31T00:06:01;14.10;99.90
13409;DHT22;6775;49.574;11.170;2023-08-31T00:08:30;14.10;99.90
13409;DHT22;6775;49.574;11.170;2023-08-31T00:11:00;14.10;99.90
13409;DHT22;6775;49.574;11.170;2023-08-31T00:13:29;14.10;99.90
13409;DHT22;6775;49.574;11.170;2023-08-31T00:15:57;14.10;99.90
13409;DHT22;6775;49.574;11.170;2023-08-31T00:18:26;14.00;99.90
13409;DHT22;6775;49.574;11.170;2023-08-31T00:20:54;14.10;99.90
13409;DHT22;6775;49.574;11.170;2023-08-31T00:23:22;14.00;99.90
13409;DHT22;6775;49.574;11.170;2023-08-31T00:25:52;14.00;99.90
13409;DHT22;6775;49.574;11.170;2023-08-31T00:28:20;13.90;99.90
13409;DHT22;6775;49.574;11.170;2023-08-31T00:30:49;13.90;99.90
13409;DHT22;6775;49.574;11.170;2023-08-31T00:33:18;13.90;99.90
13409;DHT22;6775;49.574;11.170;2023-08-31T00:35:46;13.90;99.90
13409;DHT22;6775;49.574;11.170;2023-08-31T00:38:14;13.90;99.90
13409;DHT22;6775;49.574;11.170;2023-08-31T00:40:43;14.00;99.90
13409;DHT22;6775;49.574;11.170;2023-08-31T00:43:13;14.00;99.90
13409;DHT22;6775;49.574;11.170;2023-08-31T00:45:44;14.00;99.90
13409;DHT22;6775;49.574;11.170;2023-08-31T00:48:16;14.00;99.90
13409;DHT22;6775;49.574;11.170;2023-08-31T00:50:46;14.00;99.90
13409;DHT22;6775;49.574;11.170;2023-08-31T00:53:15;13.90;99.90
13409;DHT22;6775;49.574;11.170;2023-08-31T00:55:44;14.00;99.90
13409;DHT22;6775;49.574;11.170;2023-08-31T00:58:13;14.00;99.90
13409;DHT22;6775;49.574;11.170;2023-08-31T01:00:46;14.00;99.90
13409;DHT22;6775;49.574;11.170;2023-08-31T01:03:29;13.90;99.90
13409;DHT22;6775;49.574;11.170;2023-08-31T01:06:12;14.00;99.90
13409;DHT22;6775;49.574;11.170;2023-08-31T01:08:50;14.00;99.90
13409;DHT22;6775;49.574;11.170;2023-08-31T01:11:29;13.90;99.90
13409;DHT22;6775;49.574;11.170;2023-08-31T01:14:12;14.00;99.90
13409;DHT22;6775;49.574;11.170;2023-08-31T01:16:47;14.10;99.90
13409;DHT22;6775;49.574;11.170;2023-08-31T01:19:27;14.10;99.90
13409;DHT22;6775;49.574;11.170;2023-08-31T01:22:12;14.00;99.90
13409;DHT22;6775;49.574;11.170;2023-08-31T01:24:46;14.10;99.90
13409;DHT22;6775;49.574;11.170;2023-08-31T01:27:15;14.00;99.90
13409;DHT22;6775;49.574;11.170;2023-08-31T01:29:43;14.00;99.90
13409;DHT22;6775;49.574;11.170;2023-08-31T01:32:12;14.00;99.90
13409;DHT22;6775;49.574;11.170;2023-08-31T01:34:40;14.00;99.90
13409;DHT22;6775;49.574;11.170;2023-08-31T01:37:12;14.00;99.90
13409;DHT22;6775;49.574;11.170;2023-08-31T01:39:52;14.00;99.90
13409;DHT22;6775;49.574;11.170;2023-08-31T01:42:26;14.00;99.90
13409;DHT22;6775;49.574;11.170;2023-08-31T01:44:56;14.10;99.90
13409;DHT22;6775;49.574;11.170;2023-08-31T01:47:25;14.10;99.90
13409;DHT22;6775;49.574;11.170;2023-08-31T01:49:54;14.10;99.90
13409;DHT22;6775;49.574;11.170;2023-08-31T01:52:22;14.10;99.90
13409;DHT22;6775;49.574;11.170;2023-08-31T01:54:51;14.10;99.90
13409;DHT22;6775;49.574;11.170;2023-08-31T01:57:19;14.10;99.90
13409;DHT22;6775;49.574;11.170;2023-08-31T01:59:47;14.10;99.90
13409;DHT22;6775;49.574;11.170;2023-08-31T02:02:15;14.20;99.90
13409;DHT22;6775;49.574;11.170;2023-08-31T02:04:44;14.20;99.90
13409;DHT22;6775;49.574;11.170;2023-08-31T02:07:12;14.20;99.90
13409;DHT22;6775;49.574;11.170;2023-08-31T02:09:40;14.20;99.90
13409;DHT22;6775;49.574;11.170;2023-08-31T02:12:09;14.20;99.90
13409;DHT22;6775;49.574;11.170;2023-08-31T02:14:37;14.10;99.90
13409;DHT22;6775;49.574;11.170;2023-08-31T02:17:06;14.20;99.90
13409;DHT22;6775;49.574;11.170;2023-08-31T02:19:33;14.10;99.90
13409;DHT22;6775;49.574;11.170;2023-08-31T02:22:01;14.10;99.90
13409;DHT22;6775;49.574;11.170;2023-08-31T02:24:30;14.10;99.90
13409;DHT22;6775;49.574;11.170;2023-08-31T02:26:58;14.10;99.90
13409;DHT22;6775;49.574;11.170;2023-08-31T02:29:27;14.10;99.90
13409;DHT22;6775;49.574;11.170;2023-08-31T02:31:55;14.00;99.90
13409;DHT22;6775;49.574;11.170;2023-08-31T02:34:23;14.10;99.90
13409;DHT22;6775;49.574;11.170;2023-08-31T02:36:51;14.00;99.90
13409;DHT22;6775;49.574;11.170;2023-08-31T02:39:19;14.00;99.90
13409;DHT22;6775;49.574;11.170;2023-08-31T02:41:47;14.00;99.90
13409;DHT22;6775;49.574;11.170;2023-08-31T02:44:15;14.00;99.90
13409;DHT22;6775;49.574;11.170;2023-08-31T02:46:44;14.00;99.90
13409;DHT22;6775;49.574;11.170;2023-08-31T02:49:12;14.00;99.90
13409;DHT22;6775;49.574;11.170;2023-08-31T02:51:40;14.00;99.90
13409;DHT22;6775;49.574;11.170;2023-08-31T02:54:08;14.00;99.90
13409;DHT22;6775;49.574;11.170;2023-08-31T02:56:36;13.90;99.90
13409;DHT22;6775;49.574;11.170;2023-08-31T02:59:04;13.90;99.90
13409;DHT22;6775;49.574;11.170;2023-08-31T03:01:32;13.80;99.90
13409;DHT22;6775;49.574;11.170;2023-08-31T03:04:03;13.80;99.90
13409;DHT22;6775;49.574;11.170;2023-08-31T03:06:32;13.70;99.90
13409;DHT22;6775;49.574;11.170;2023-08-31T03:09:00;13.70;99.90
13409;DHT22;6775;49.574;11.170;2023-08-31T03:11:29;13.70;99.90
13409;DHT22;6775;49.574;11.170;2023-08-31T03:13:58;13.60;99.90
13409;DHT22;6775;49.574;11.170;2023-08-31T03:16:26;13.70;99.90
13409;DHT22;6775;49.574;11.170;2023-08-31T03:18:54;13.60;99.90
13409;DHT22;6775;49.574;11.170;2023-08-31T03:21:23;13.70;99.90
13409;DHT22;6775;49.574;11.170;2023-08-31T03:23:51;13.70;99.90
13409;DHT22;6775;49.574;11.170;2023-08-31T03:26:19;13.70;99.90
13409;DHT22;6775;49.574;11.170;2023-08-31T03:28:47;13.70;99.90
13409;DHT22;6775;49.574;11.170;2023-08-31T03:31:15;13.70;99.90
13409;DHT22;6775;49.574;11.170;2023-08-31T03:33:43;13.70;99.90
13409;DHT22;6775;49.574;11.170;2023-08-31T03:36:11;13.70;99.90
13409;DHT22;6775;49.574;11.170;2023-08-31T03:38:40;13.80;99.90
13409;DHT22;6775;49.574;11.170;2023-08-31T03:41:08;13.70;99.90
13409;DHT22;6775;49.574;11.170;2023-08-31T03:43:36;13.70;99.90
13409;DHT22;6775;49.574;11.170;2023-08-31T03:46:04;13.80;99.90
13409;DHT22;6775;49.574;11.170;2023-08-31T03:48:33;13.80;99.90
13409;DHT22;6775;49.574;11.170;2023-08-31T03:51:01;13.80;99.90
13409;DHT22;6775;49.574;11.170;2023-08-31T03:53:30;13.80;99.90
13409;DHT22;6775;49.574;11.170;2023-08-31T03:55:59;13.80;99.90
13409;DHT22;6775;49.574;11.170;2023-08-31T03:58:28;13.70;99.90
13409;DHT22;6775;49.574;11.170;2023-08-31T04:00:56;13.70;99.90
13409;DHT22;6775;49.574;11.170;2023-08-31T04:03:24;13.70;99.90
13409;DHT22;6775;49.574;11.170;2023-08-31T04:05:55;13.70;99.90
13409;DHT22;6775;49.574;11.170;2023-08-31T04:08:24;13.60;99.90
13409;DHT22;6775;49.574;11.170;2023-08-31T04:10:52;13.60;99.90
13409;DHT22;6775;49.574;11.170;2023-08-31T04:13:21;13.50;99.90
13409;DHT22;6775;49.574;11.170;2023-08-31T04:15:49;13.50;99.90
13409;DHT22;6775;49.574;11.170;2023-08-31T04:18:17;13.40;99.90
13409;DHT22;6775;49.574;11.170;2023-08-31T04:20:49;13.40;99.90
13409;DHT22;6775;49.574;11.170;2023-08-31T04:23:19;13.30;99.90
13409;DHT22;6775;49.574;11.170;2023-08-31T04:25:47;13.30;99.90
13409;DHT22;6775;49.574;11.170;2023-08-31T04:28:18;13.20;99.90
13409;DHT22;6775;49.574;11.170;2023-08-31T04:30:47;13.20;99.90
13409;DHT22;6775;49.574;11.170;2023-08-31T04:33:15;13.20;99.90
13409;DHT22;6775;49.574;11.170;2023-08-31T04:35:44;13.10;99.90
13409;DHT22;6775;49.574;11.170;2023-08-31T04:38:11;13.10;99.90
13409;DHT22;6775;49.574;11.170;2023-08-31T04:40:39;13.10;99.90
13409;DHT22;6775;49.574;11.170;2023-08-31T04:43:07;13.10;99.90
13409;DHT22;6775;49.574;11.170;2023-08-31T04:45:37;13.00;99.90
13409;DHT22;6775;49.574;11.170;2023-08-31T04:48:06;13.00;99.90
13409;DHT22;6775;49.574;11.170;2023-08-31T04:50:35;13.00;99.90
13409;DHT22;6775;49.574;11.170;2023-08-31T04:53:02;13.00;99.90
13409;DHT22;6775;49.574;11.170;2023-08-31T04:55:31;13.00;99.90
13409;DHT22;6775;49.574;11.170;2023-08-31T04:57:59;13.00;99.90
13409;DHT22;6775;49.574;11.170;2023-08-31T05:00:27;13.00;99.90
13409;DHT22;6775;49.574;11.170;2023-08-31T05:02:56;13.00;99.90
13409;DHT22;6775;49.574;11.170;2023-08-31T05:05:25;13.00;99.90
13409;DHT22;6775;49.574;11.170;2023-08-31T05:07:54;13.00;99.90
13409;DHT22;6775;49.574;11.170;2023-08-31T05:10:21;13.00;99.90
13409;DHT22;6775;49.574;11.170;2023-08-31T05:12:49;13.00;99.90
13409;DHT22;6775;49.574;11.170;2023-08-31T05:15:17;13.00;99.90
13409;DHT22;6775;49.574;11.170;2023-08-31T05:17:45;13.00;99.90
13409;DHT22;6775;49.574;11.170;2023-08-31T05:20:15;13.10;99.90
13409;DHT22;6775;49.574;11.170;2023-08-31T05:22:44;13.10;99.90
13409;DHT22;6775;49.574;11.170;2023-08-31T05:25:13;13.10;99.90
13409;DHT22;6775;49.574;11.170;2023-08-31T05:27:41;13.20;99.90
13409;DHT22;6775;49.574;11.170;2023-08-31T05:30:09;13.20;99.90
13409;DHT22;6775;49.574;11.170;2023-08-31T05:32:38;13.30;99.90
13409;DHT22;6775;49.574;11.170;2023-08-31T05:35:07;13.30;99.90
13409;DHT22;6775;49.574;11.170;2023-08-31T05:37:36;13.40;99.90
13409;DHT22;6775;49.574;11.170;2023-08-31T05:40:07;13.40;99.90
13409;DHT22;6775;49.574;11.170;2023-08-31T05:42:37;13.40;99.90
13409;DHT22;6775;49.574;11.170;2023-08-31T05:45:06;13.40;99.90
13409;DHT22;6775;49.574;11.170;2023-08-31T05:47:35;13.50;99.90
13409;DHT22;6775;49.574;11.170;2023-08-31T05:50:04;13.60;99.90
13409;DHT22;6775;49.574;11.170;2023-08-31T05:52:32;13.70;99.90
13409;DHT22;6775;49.574;11.170;2023-08-31T05:55:00;13.80;99.90
13409;DHT22;6775;49.574;11.170;2023-08-31T05:57:31;13.90;99.90
13409;DHT22;6775;49.574;11.170;2023-08-31T05:59:59;13.90;99.90
13409;DHT22;6775;49.574;11.170;2023-08-31T06:02:27;13.80;99.90
13409;DHT22;6775;49.574;11.170;2023-08-31T06:04:55;13.80;99.90
13409;DHT22;6775;49.574;11.170;2023-08-31T06:07:23;13.80;99.90
13409;DHT22;6775;49.574;11.170;2023-08-31T06:09:51;13.70;99.90
13409;DHT22;6775;49.574;11.170;2023-08-31T06:12:19;13.70;99.90
13409;DHT22;6775;49.574;11.170;2023-08-31T06:14:49;13.80;99.90
13409;DHT22;6775;49.574;11.170;2023-08-31T06:17:17;13.80;99.90
13409;DHT22;6775;49.574;11.170;2023-08-31T06:19:45;13.80;99.90
13409;DHT22;6775;49.574;11.170;2023-08-31T06:22:13;14.00;99.90
13409;DHT22;6775;49.574;11.170;2023-08-31T06:24:41;14.10;99.90
13409;DHT22;6775;49.574;11.170;2023-08-31T06:27:09;14.20;99.90
13409;DHT22;6775;49.574;11.170;2023-08-31T06:29:39;14.30;99.90
13409;DHT22;6775;49.574;11.170;2023-08-31T06:32:08;14.30;99.90
13409;DHT22;6775;49.574;11.170;2023-08-31T06:34:36;14.40;99.90
13409;DHT22;6775;49.574;11.170;2023-08-31T06:37:04;14.50;99.90
13409;DHT22;6775;49.574;11.170;2023-08-31T06:39:32;14.50;99.90
13409;DHT22;6775;49.574;11.170;2023-08-31T06:42:00;14.50;99.90
13409;DHT22;6775;49.574;11.170;2023-08-31T06:44:28;14.50;99.90
13409;DHT22;6775;49.574;11.170;2023-08-31T06:46:57;14.60;99.90
13409;DHT22;6775;49.574;11.170;2023-08-31T06:49:26;14.70;99.90
13409;DHT22;6775;49.574;11.170;2023-08-31T06:51:56;14.80;99.90
13409;DHT22;6775;49.574;11.170;2023-08-31T06:54:24;14.90;99.90
13409;DHT22;6775;49.574;11.170;2023-08-31T06:56:52;14.90;99.90
13409;DHT22;6775;49.574;11.170;2023-08-31T06:59:20;15.00;99.90
13409;DHT22;6775;49.574;11.170;2023-08-31T07:01:48;15.10;99.90
13409;DHT22;6775;49.574;11.170;2023-08-31T07:04:16;15.20;99.90
13409;DHT22;6775;49.574;11.170;2023-08-31T07:06:46;15.30;99.90
13409;DHT22;6775;49.574;11.170;2023-08-31T07:09:14;15.30;99.90
13409;DHT22;6775;49.574;11.170;2023-08-31T07:11:42;15.40;99.90
13409;DHT22;6775;49.574;11.170;2023-08-31T07:14:10;15.40;99.90
13409;DHT22;6775;49.574;11.170;2023-08-31T07:16:38;15.40;99.90
13409;DHT22;6775;49.574;11.170;2023-08-31T07:19:06;15.50;99.90
13409;DHT22;6775;49.574;11.170;2023-08-31T07:21:34;15.40;99.90
13409;DHT22;6775;49.574;11.170;2023-08-31T07:24:04;15.30;99.90
13409;DHT22;6775;49.574;11.170;2023-08-31T07:26:32;15.30;99.90
13409;DHT22;6775;49.574;11.170;2023-08-31T07:29:01;15.40;99.90
13409;DHT22;6775;49.574;11.170;2023-08-31T07:31:31;15.50;99.90
13409;DHT22;6775;49.574;11.170;2023-08-31T07:33:59;15.80;99.90
13409;DHT22;6775;49.574;11.170;2023-08-31T07:36:27;15.90;99.90
13409;DHT22;6775;49.574;11.170;2023-08-31T07:38:55;16.00;99.90
13409;DHT22;6775;49.574;11.170;2023-08-31T07:41:25;16.30;99.90
13409;DHT22;6775;49.574;11.170;2023-08-31T07:43:53;16.50;99.90
13409;DHT22;6775;49.574;11.170;2023-08-31T07:46:30;16.70;99.90
13409;DHT22;6775;49.574;11.170;2023-08-31T07:48:58;16.80;99.90
13409;DHT22;6775;49.574;11.170;2023-08-31T07:51:26;16.70;99.90
13409;DHT22;6775;49.574;11.170;2023-08-31T07:53:54;16.70;99.90
13409;DHT22;6775;49.574;11.170;2023-08-31T07:56:24;16.90;99.90
13409;DHT22;6775;49.574;11.170;2023-08-31T07:58:52;17.00;99.90
13409;DHT22;6775;49.574;11.170;2023-08-31T08:01:20;16.90;99.90
13409;DHT22;6775;49.574;11.170;2023-08-31T08:03:49;17.10;99.90
13409;DHT22;6775;49.574;11.170;2023-08-31T08:06:17;17.40;99.90
13409;DHT22;6775;49.574;11.170;2023-08-31T08:08:45;17.50;99.90
13409;DHT22;6775;49.574;11.170;2023-08-31T08:11:13;17.80;99.90
13409;DHT22;6775;49.574;11.170;2023-08-31T08:13:42;17.70;99.90
13409;DHT22;6775;49.574;11.170;2023-08-31T08:16:10;17.80;99.90
13409;DHT22;6775;49.574;11.170;2023-08-31T08:18:38;17.90;99.90
13409;DHT22;6775;49.574;11.170;2023-08-31T08:21:06;18.00;99.90
13409;DHT22;6775;49.574;11.170;2023-08-31T08:23:35;18.30;99.90
13409;DHT22;6775;49.574;11.170;2023-08-31T08:26:03;18.40;99.90
13409;DHT22;6775;49.574;11.170;2023-08-31T08:28:31;18.50;99.90
13409;DHT22;6775;49.574;11.170;2023-08-31T08:31:02;18.30;99.90
13409;DHT22;6775;49.574;11.170;2023-08-31T08:33:30;18.10;99.90
13409;DHT22;6775;49.574;11.170;2023-08-31T08:35:59;18.10;99.90
13409;DHT22;6775;49.574;11.170;2023-08-31T08:38:27;18.30;99.90
13409;DHT22;6775;49.574;11.170;2023-08-31T08:40:55;18.20;99.90
13409;DHT22;6775;49.574;11.170;2023-08-31T08:43:25;17.90;99.90
13409;DHT22;6775;49.574;11.170;2023-08-31T08:45:54;17.90;99.90
13409;DHT22;6775;49.574;11.170;2023-08-31T08:48:26;18.20;99.90
13409;DHT22;6775;49.574;11.170;2023-08-31T08:50:55;18.40;99.90
13409;DHT22;6775;49.574;11.170;2023-08-31T08:53:23;18.30;99.90
13409;DHT22;6775;49.574;11.170;2023-08-31T08:55:51;18.00;99.90
13409;DHT22;6775;49.574;11.170;2023-08-31T08:58:19;17.90;99.90
13409;DHT22;6775;49.574;11.170;2023-08-31T09:00:48;18.00;99.90
13409;DHT22;6775;49.574;11.170;2023-08-31T09:03:16;18.00;99.90
13409;DHT22;6775;49.574;11.170;2023-08-31T09:05:46;17.90;99.90
13409;DHT22;6775;49.574;11.170;2023-08-31T09:08:14;17.80;99.90
13409;DHT22;6775;49.574;11.170;2023-08-31T09:10:43;18.10;99.90
13409;DHT22;6775;49.574;11.170;2023-08-31T09:13:13;18.40;99.90
13409;DHT22;6775;49.574;11.170;2023-08-31T09:15:44;18.70;99.90
13409;DHT22;6775;49.574;11.170;2023-08-31T09:18:15;19.00;99.90
13409;DHT22;6775;49.574;11.170;2023-08-31T09:20:47;18.80;99.90
13409;DHT22;6775;49.574;11.170;2023-08-31T09:23:16;18.50;99.90
13409;DHT22;6775;49.574;11.170;2023-08-31T09:25:45;18.60;99.90
13409;DHT22;6775;49.574;11.170;2023-08-31T09:28:15;18.90;99.90
13409;DHT22;6775;49.574;11.170;2023-08-31T09:30:46;19.30;99.90
13409;DHT22;6775;49.574;11.170;2023-08-31T09:33:17;19.60;99.90
13409;DHT22;6775;49.574;11.170;2023-08-31T09:35:50;19.50;99.90
13409;DHT22;6775;49.574;11.170;2023-08-31T09:38:19;19.10;99.90
13409;DHT22;6775;49.574;11.170;2023-08-31T09:40:47;18.90;99.90
13409;DHT22;6775;49.574;11.170;2023-08-31T09:43:19;18.70;99.90
13409;DHT22;6775;49.574;11.170;2023-08-31T09:45:49;18.60;99.90
13409;DHT22;6775;49.574;11.170;2023-08-31T09:48:20;18.40;99.90
13409;DHT22;6775;49.574;11.170;2023-08-31T09:50:52;18.20;99.90
13409;DHT22;6775;49.574;11.170;2023-08-31T09:53:24;18.00;99.90
13409;DHT22;6775;49.574;11.170;2023-08-31T09:55:56;17.70;99.90
13409;DHT22;6775;49.574;11.170;2023-08-31T09:58:25;17.50;99.90
13409;DHT22;6775;49.574;11.170;2023-08-31T10:00:53;17.20;99.90
13409;DHT22;6775;49.574;11.170;2023-08-31T10:03:21;17.00;99.90
13409;DHT22;6775;49.574;11.170;2023-08-31T10:05:51;16.90;99.90
13409;DHT22;6775;49.574;11.170;2023-08-31T10:08:20;16.70;99.90
13409;DHT22;6775;49.574;11.170;2023-08-31T10:10:48;16.60;99.90
13409;DHT22;6775;49.574;11.170;2023-08-31T10:13:16;16.60;99.90
13409;DHT22;6775;49.574;11.170;2023-08-31T10:15:49;16.50;99.90
13409;DHT22;6775;49.574;11.170;2023-08-31T10:18:18;16.50;99.90
13409;DHT22;6775;49.574;11.170;2023-08-31T10:20:46;16.60;99.90
13409;DHT22;6775;49.574;11.170;2023-08-31T10:23:15;16.90;99.90
13409;DHT22;6775;49.574;11.170;2023-08-31T10:26:02;17.10;99.90
13409;DHT22;6775;49.574;11.170;2023-08-31T10:28:39;17.20;99.90
13409;DHT22;6775;49.574;11.170;2023-08-31T10:31:10;17.30;99.90
13409;DHT22;6775;49.574;11.170;2023-08-31T10:33:43;17.60;99.90
13409;DHT22;6775;49.574;11.170;2023-08-31T10:36:13;17.90;99.90
13409;DHT22;6775;49.574;11.170;2023-08-31T10:38:47;18.40;99.90
13409;DHT22;6775;49.574;11.170;2023-08-31T10:41:34;18.90;99.90
13409;DHT22;6775;49.574;11.170;2023-08-31T10:44:21;19.10;99.90
13409;DHT22;6775;49.574;11.170;2023-08-31T10:46:50;19.10;99.90
13409;DHT22;6775;49.574;11.170;2023-08-31T10:49:20;18.90;99.90
13409;DHT22;6775;49.574;11.170;2023-08-31T10:51:55;18.80;99.90
13409;DHT22;6775;49.574;11.170;2023-08-31T10:54:26;18.60;99.90
13409;DHT22;6775;49.574;11.170;2023-08-31T10:57:02;18.50;99.90
13409;DHT22;6775;49.574;11.170;2023-08-31T10:59:45;18.30;99.90
13409;DHT22;6775;49.574;11.170;2023-08-31T11:02:28;18.20;99.90
13409;DHT22;6775;49.574;11.170;2023-08-31T11:05:06;17.90;99.90
13409;DHT22;6775;49.574;11.170;2023-08-31T11:07:35;17.70;99.90
13409;DHT22;6775;49.574;11.170;2023-08-31T11:10:14;17.50;99.90
13409;DHT22;6775;49.574;11.170;2023-08-31T11:12:45;17.40;99.90
13409;DHT22;6775;49.574;11.170;2023-08-31T11:15:17;17.30;99.90
13409;DHT22;6775;49.574;11.170;2023-08-31T11:17:48;17.30;99.90
13409;DHT22;6775;49.574;11.170;2023-08-31T11:20:19;17.30;99.90
13409;DHT22;6775;49.574;11.170;2023-08-31T11:22:48;17.50;99.90
13409;DHT22;6775;49.574;11.170;2023-08-31T11:25:21;17.60;99.90
13409;DHT22;6775;49.574;11.170;2023-08-31T11:27:55;17.70;99.90
13409;DHT22;6775;49.574;11.170;2023-08-31T11:30:25;17.70;99.90
13409;DHT22;6775;49.574;11.170;2023-08-31T11:32:54;17.80;99.90
13409;DHT22;6775;49.574;11.170;2023-08-31T11:35:23;17.70;99.90
13409;DHT22;6775;49.574;11.170;2023-08-31T11:37:55;17.70;99.90
13409;DHT22;6775;49.574;11.170;2023-08-31T11:40:27;17.70;99.90
13409;DHT22;6775;49.574;11.170;2023-08-31T11:42:56;17.80;99.90
13409;DHT22;6775;49.574;11.170;2023-08-31T11:45:27;17.90;99.90
13409;DHT22;6775;49.574;11.170;2023-08-31T11:47:58;18.00;99.90
13409;DHT22;6775;49.574;11.170;2023-08-31T11:50:27;18.10;99.90
13409;DHT22;6775;49.574;11.170;2023-08-31T11:52:56;18.20;99.90
13409;DHT22;6775;49.574;11.170;2023-08-31T11:55:24;18.20;99.90
13409;DHT22;6775;49.574;11.170;2023-08-31T11:57:54;18.20;99.90
13409;DHT22;6775;49.574;11.170;2023-08-31T12:00:23;18.30;99.90
13409;DHT22;6775;49.574;11.170;2023-08-31T12:02:58;18.30;99.90
13409;DHT22;6775;49.574;11.170;2023-08-31T12:05:26;18.40;99.90
13409;DHT22;6775;49.574;11.170;2023-08-31T12:07:55;18.40;99.90
13409;DHT22;6775;49.574;11.170;2023-08-31T12:10:24;18.40;99.90
13409;DHT22;6775;49.574;11.170;2023-08-31T12:13:07;18.40;99.90
13409;DHT22;6775;49.574;11.170;2023-08-31T12:15:36;18.40;99.90
13409;DHT22;6775;49.574;11.170;2023-08-31T12:18:08;18.40;99.90
13409;DHT22;6775;49.574;11.170;2023-08-31T12:20:43;18.40;99.90
13409;DHT22;6775;49.574;11.170;2023-08-31T12:23:12;18.50;99.90
13409;DHT22;6775;49.574;11.170;2023-08-31T12:25:46;18.90;99.90
13409;DHT22;6775;49.574;11.170;2023-08-31T12:28:16;19.20;99.90
13409;DHT22;6775;49.574;11.170;2023-08-31T12:30:47;19.30;99.90
13409;DHT22;6775;49.574;11.170;2023-08-31T12:33:16;19.40;99.90
13409;DHT22;6775;49.574;11.170;2023-08-31T12:35:46;19.40;99.90
13409;DHT22;6775;49.574;11.170;2023-08-31T12:38:14;19.40;99.90
13409;DHT22;6775;49.574;11.170;2023-08-31T12:40:42;19.40;99.90
13409;DHT22;6775;49.574;11.170;2023-08-31T12:43:10;19.30;99.90
13409;DHT22;6775;49.574;11.170;2023-08-31T12:45:40;19.40;99.90
13409;DHT22;6775;49.574;11.170;2023-08-31T12:48:08;19.60;99.90
13409;DHT22;6775;49.574;11.170;2023-08-31T12:50:36;19.70;99.90
13409;DHT22;6775;49.574;11.170;2023-08-31T12:53:04;19.90;99.90
13409;DHT22;6775;49.574;11.170;2023-08-31T12:55:32;19.90;99.90
13409;DHT22;6775;49.574;11.170;2023-08-31T12:58:00;19.80;99.90
13409;DHT22;6775;49.574;11.170;2023-08-31T13:00:29;19.80;99.90
13409;DHT22;6775;49.574;11.170;2023-08-31T13:02:58;19.80;99.90
13409;DHT22;6775;49.574;11.170;2023-08-31T13:05:27;19.80;99.90
13409;DHT22;6775;49.574;11.170;2023-08-31T13:07:55;19.80;99.90
13409;DHT22;6775;49.574;11.170;2023-08-31T13:10:23;19.80;99.90
13409;DHT22;6775;49.574;11.170;2023-08-31T13:12:51;19.80;99.90
13409;DHT22;6775;49.574;11.170;2023-08-31T13:15:19;19.60;99.90
13409;DHT22;6775;49.574;11.170;2023-08-31T13:17:48;19.50;99.90
13409;DHT22;6775;49.574;11.170;2023-08-31T13:20:17;19.50;99.90
13409;DHT22;6775;49.574;11.170;2023-08-31T13:22:45;19.60;99.90
13409;DHT22;6775;49.574;11.170;2023-08-31T13:25:13;19.70;99.90
13409;DHT22;6775;49.574;11.170;2023-08-31T13:27:42;19.70;99.90
13409;DHT22;6775;49.574;11.170;2023-08-31T13:30:11;19.80;99.90
13409;DHT22;6775;49.574;11.170;2023-08-31T13:32:40;19.80;99.90
13409;DHT22;6775;49.574;11.170;2023-08-31T13:35:09;19.80;99.90
13409;DHT22;6775;49.574;11.170;2023-08-31T13:37:39;19.80;99.90
13409;DHT22;6775;49.574;11.170;2023-08-31T13:40:07;19.80;99.90
13409;DHT22;6775;49.574;11.170;2023-08-31T13:42:36;19.70;99.90
13409;DHT22;6775;49.574;11.170;2023-08-31T13:45:07;19.80;99.90
13409;DHT22;6775;49.574;11.170;2023-08-31T13:47:36;20.00;99.90
13409;DHT22;6775;49.574;11.170;2023-08-31T13:50:05;20.00;99.90
13409;DHT22;6775;49.574;11.170;2023-08-31T13:52:33;20.10;99.90
13409;DHT22;6775;49.574;11.170;2023-08-31T13:55:03;20.10;99.90
13409;DHT22;6775;49.574;11.170;2023-08-31T13:57:32;20.00;99.90
13409;DHT22;6775;49.574;11.170;2023-08-31T14:00:00;20.00;99.90
13409;DHT22;6775;49.574;11.170;2023-08-31T14:02:28;20.10;99.90
13409;DHT22;6775;49.574;11.170;2023-08-31T14:04:56;20.30;99.90
13409;DHT22;6775;49.574;11.170;2023-08-31T14:07:24;20.20;99.90
13409;DHT22;6775;49.574;11.170;2023-08-31T14:09:52;20.00;99.90
13409;DHT22;6775;49.574;11.170;2023-08-31T14:12:23;19.80;99.90
13409;DHT22;6775;49.574;11.170;2023-08-31T14:14:51;19.70;99.90
13409;DHT22;6775;49.574;11.170;2023-08-31T14:17:19;19.70;99.90
13409;DHT22;6775;49.574;11.170;2023-08-31T14:19:47;19.80;99.90
13409;DHT22;6775;49.574;11.170;2023-08-31T14:22:15;19.90;99.90
13409;DHT22;6775;49.574;11.170;2023-08-31T14:24:44;19.90;99.90
13409;DHT22;6775;49.574;11.170;2023-08-31T14:27:13;19.90;99.90
13409;DHT22;6775;49.574;11.170;2023-08-31T14:29:42;19.80;99.90
13409;DHT22;6775;49.574;11.170;2023-08-31T14:32:10;19.70;99.90
13409;DHT22;6775;49.574;11.170;2023-08-31T14:34:39;19.70;99.90
13409;DHT22;6775;49.574;11.170;2023-08-31T14:37:07;19.60;99.90
13409;DHT22;6775;49.574;11.170;2023-08-31T14:39:35;19.60;99.90
13409;DHT22;6775;49.574;11.170;2023-08-31T14:42:04;19.60;99.90
13409;DHT22;6775;49.574;11.170;2023-08-31T14:44:32;19.70;99.90
13409;DHT22;6775;49.574;11.170;2023-08-31T14:47:02;19.70;99.90
13409;DHT22;6775;49.574;11.170;2023-08-31T14:49:30;19.70;99.90
13409;DHT22;6775;49.574;11.170;2023-08-31T14:51:58;19.60;99.90
13409;DHT22;6775;49.574;11.170;2023-08-31T14:54:31;19.50;99.90
13409;DHT22;6775;49.574;11.170;2023-08-31T14:57:00;19.40;99.90
13409;DHT22;6775;49.574;11.170;2023-08-31T14:59:30;19.50;99.90
13409;DHT22;6775;49.574;11.170;2023-08-31T15:01:59;19.50;99.90
13409;DHT22;6775;49.574;11.170;2023-08-31T15:04:30;19.50;99.90
13409;DHT22;6775;49.574;11.170;2023-08-31T15:06:58;19.40;99.90
13409;DHT22;6775;49.574;11.170;2023-08-31T15:09:26;19.40;99.90
13409;DHT22;6775;49.574;11.170;2023-08-31T15:11:54;19.30;99.90
13409;DHT22;6775;49.574;11.170;2023-08-31T15:14:22;19.20;99.90
13409;DHT22;6775;49.574;11.170;2023-08-31T15:16:51;19.20;99.90
13409;DHT22;6775;49.574;11.170;2023-08-31T15:19:20;19.20;99.90
13409;DHT22;6775;49.574;11.170;2023-08-31T15:21:49;19.20;99.90
13409;DHT22;6775;49.574;11.170;2023-08-31T15:24:17;19.20;99.90
13409;DHT22;6775;49.574;11.170;2023-08-31T15:26:45;19.30;99.90
13409;DHT22;6775;49.574;11.170;2023-08-31T15:29:13;19.30;99.90
13409;DHT22;6775;49.574;11.170;2023-08-31T15:31:41;19.30;99.90
13409;DHT22;6775;49.574;11.170;2023-08-31T15:34:09;19.30;99.90
13409;DHT22;6775;49.574;11.170;2023-08-31T15:36:37;19.30;99.50
13409;DHT22;6775;49.574;11.170;2023-08-31T15:39:07;19.20;99.00
13409;DHT22;6775;49.574;11.170;2023-08-31T15:41:35;19.10;99.20
13409;DHT22;6775;49.574;11.170;2023-08-31T15:44:03;19.00;99.90